Time;durP1;ratioP1;P1;durP2;ratioP2;P2;SDS_P1;SDS_P2;PMS_P1;PMS_P2;Temp;Humidity;BMP_temperature;BMP_pressure;BME280_temperature;BME280_humidity;BME280_pressure;Samples;Min_cycle;Max_cycle;Signal;HPM_P1;HPM_P2
2022/03/03 00:02:00;;;;;;;;;;;;;;;-0.47;55.89;98540.73;1630922;86;24806;-85
2022/03/03 00:04:26;;;;;;;;;;;;;;;-0.46;55.97;98548.42;1626203;87;22002;-85
2022/03/03 00:06:52;;;;;;;;;;;;;;;-0.50;56.04;98542.96;1646101;85;26063;-85
2022/03/03 00:09:19;;;;;;;;;;;;;;;-0.56;56.07;98546.95;1642933;85;24463;-85
2022/03/03 00:11:45;;;;;;;;;;;;;;;-0.60;56.08;98541.46;1645050;86;20493;-84
2022/03/03 00:14:11;;;;;;;;;;;;;;;-0.59;56.14;98539.73;1648041;85;24825;-84
2022/03/03 00:16:37;;;;;;;;;;;;;;;-0.62;56.22;98534.25;1644054;86;21945;-84
2022/03/03 00:19:04;;;;;;;;;;;;;;;-0.62;56.30;98539.39;1649937;85;26201;-85
2022/03/03 00:21:30;;;;;;;;;;;;;;;-0.60;56.39;98532.94;1647601;85;24485;-84
2022/03/03 00:23:56;;;;;;;;;;;;;;;-0.57;56.51;98529.84;1645245;85;20323;-84
2022/03/03 00:26:24;;;;;;;;;;;;;;;-0.54;56.61;98540.03;1650251;86;25643;-85
2022/03/03 00:28:50;;;;;;;;;;;;;;;-0.51;56.71;98530.14;1641703;85;22040;-85
2022/03/03 00:31:16;;;;;;;;;;;;;;;-0.50;56.80;98525.41;1648702;86;26059;-85
2022/03/03 00:33:42;;;;;;;;;;;;;;;-0.51;56.90;98525.84;1639902;86;24478;-85
2022/03/03 00:36:09;;;;;;;;;;;;;;;-0.55;56.96;98529.37;1647003;85;20261;-85
2022/03/03 00:38:35;;;;;;;;;;;;;;;-0.63;57.00;98523.56;1648644;85;24718;-85
2022/03/03 00:41:01;;;;;;;;;;;;;;;-0.69;57.04;98523.70;1647890;86;22033;-84
2022/03/03 00:43:27;;;;;;;;;;;;;;;-0.76;57.09;98518.29;1643275;86;26193;-85
2022/03/03 00:45:53;;;;;;;;;;;;;;;-0.72;57.18;98510.09;1651879;86;24509;-85
2022/03/03 00:48:19;;;;;;;;;;;;;;;-0.68;57.31;98503.55;1643798;86;20256;-85
2022/03/03 00:50:45;;;;;;;;;;;;;;;-0.66;57.44;98503.09;1652363;86;20383;-84
2022/03/03 00:53:11;;;;;;;;;;;;;;;-0.63;57.55;98496.58;1642578;86;22034;-85
2022/03/03 00:55:37;;;;;;;;;;;;;;;-0.59;57.70;98501.19;1650315;85;25963;-85
2022/03/03 00:58:03;;;;;;;;;;;;;;;-0.57;57.82;98506.71;1645048;85;24471;-85
2022/03/03 01:00:29;;;;;;;;;;;;;;;-0.55;57.95;98503.67;1648969;86;20192;-85
2022/03/03 01:02:55;;;;;;;;;;;;;;;-0.51;58.09;98501.42;1650040;86;24846;-85
2022/03/03 01:05:22;;;;;;;;;;;;;;;-0.46;58.24;98495.73;1647341;86;22113;-83
2022/03/03 01:07:48;;;;;;;;;;;;;;;-0.41;58.39;98493.03;1627111;85;26844;-84
2022/03/03 01:10:14;;;;;;;;;;;;;;;-0.38;58.51;98498.56;1635920;86;20280;-84
2022/03/03 01:12:41;;;;;;;;;;;;;;;-0.39;58.61;98493.01;1584929;88;20331;-85
2022/03/03 01:15:08;;;;;;;;;;;;;;;-0.47;58.64;98490.17;1605156;89;24774;-85
2022/03/03 01:17:35;;;;;;;;;;;;;;;-0.55;58.65;98491.27;1614110;86;22076;-85
2022/03/03 01:20:01;;;;;;;;;;;;;;;-0.61;58.68;98486.27;1615384;87;26381;-85
2022/03/03 01:22:27;;;;;;;;;;;;;;;-0.63;58.74;98481.59;1654459;85;24360;-85
2022/03/03 01:24:53;;;;;;;;;;;;;;;-0.61;58.86;98472.98;1642114;86;20339;-85
2022/03/03 01:27:19;;;;;;;;;;;;;;;-0.61;58.94;98469.13;1642224;86;24793;-85
2022/03/03 01:29:45;;;;;;;;;;;;;;;-0.57;59.05;98468.16;1647304;85;21952;-85
2022/03/03 01:32:11;;;;;;;;;;;;;;;-0.59;59.15;98471.64;1653947;84;26433;-84
2022/03/03 01:34:38;;;;;;;;;;;;;;;-0.67;59.19;98469.72;1639520;86;25233;-85
2022/03/03 01:37:04;;;;;;;;;;;;;;;-0.82;59.15;98475.23;1631679;87;20167;-85
2022/03/03 01:39:30;;;;;;;;;;;;;;;-1.02;59.09;98471.38;1642103;86;24730;-84
2022/03/03 01:41:57;;;;;;;;;;;;;;;-1.11;59.07;98472.04;1665847;84;22072;-85
2022/03/03 01:44:24;;;;;;;;;;;;;;;-1.10;59.13;98472.02;1640498;85;26052;-85
2022/03/03 01:46:50;;;;;;;;;;;;;;;-1.11;59.24;98469.47;1638082;86;24561;-85
2022/03/03 01:49:16;;;;;;;;;;;;;;;-1.09;59.37;98469.83;1639423;86;20229;-85
2022/03/03 01:51:42;;;;;;;;;;;;;;;-1.07;59.48;98465.95;1642610;86;24812;-84
2022/03/03 01:54:08;;;;;;;;;;;;;;;-1.01;59.66;98467.09;1639696;85;21957;-84
2022/03/03 01:56:35;;;;;;;;;;;;;;;-0.96;59.80;98460.97;1642003;85;26062;-84
2022/03/03 01:59:02;;;;;;;;;;;;;;;-0.92;59.93;98460.02;1672134;85;24329;-84
2022/03/03 02:01:30;;;;;;;;;;;;;;;-0.87;60.10;98461.19;1641670;86;20175;-84
2022/03/03 02:03:57;;;;;;;;;;;;;;;-0.83;60.23;98452.98;1638770;85;25489;-85
2022/03/03 02:06:23;;;;;;;;;;;;;;;-0.85;60.31;98451.72;1646029;85;22209;-85
2022/03/03 02:08:49;;;;;;;;;;;;;;;-0.84;60.43;98453.42;1659804;85;26049;-85
2022/03/03 02:11:15;;;;;;;;;;;;;;;-0.84;60.52;98454.70;1660456;85;20447;-85
2022/03/03 02:13:41;;;;;;;;;;;;;;;-0.83;60.64;98447.84;1660338;85;20266;-85
2022/03/03 02:16:08;;;;;;;;;;;;;;;-0.86;60.72;98449.59;1659729;85;20763;-85
2022/03/03 02:18:42;;;;;;;;;;;;;;;-0.87;60.79;98453.04;1660847;85;21662;-84
2022/03/03 02:21:12;;;;;;;;;;;;;;;-0.90;60.85;98446.70;1659883;85;26025;-84
2022/03/03 02:23:38;;;;;;;;;;;;;;;-0.92;60.93;98444.60;1659075;85;24462;-84
2022/03/03 02:26:05;;;;;;;;;;;;;;;-1.01;60.96;98440.13;1660158;85;20547;-83
2022/03/03 02:28:31;;;;;;;;;;;;;;;-1.13;60.92;98438.69;1658383;85;24743;-84
2022/03/03 02:30:58;;;;;;;;;;;;;;;-1.13;61.02;98433.98;1658975;85;20898;-84
2022/03/03 02:33:24;;;;;;;;;;;;;;;-1.13;61.11;98434.84;1660645;85;25979;-84
2022/03/03 02:35:50;;;;;;;;;;;;;;;-1.21;61.17;98436.75;1659102;85;24420;-84
2022/03/03 02:38:16;;;;;;;;;;;;;;;-1.15;61.29;98437.05;1660225;85;20308;-84
2022/03/03 02:40:42;;;;;;;;;;;;;;;-1.12;61.43;98431.39;1656887;85;24809;-84
2022/03/03 02:43:09;;;;;;;;;;;;;;;-1.08;61.58;98425.73;1659618;85;21951;-83
2022/03/03 02:45:35;;;;;;;;;;;;;;;-1.01;61.72;98436.28;1659263;84;26150;-85
2022/03/03 02:48:01;;;;;;;;;;;;;;;-1.00;61.85;98435.41;1660875;85;20288;-84
2022/03/03 02:50:28;;;;;;;;;;;;;;;-1.08;61.87;98437.29;1660392;84;20506;-84
2022/03/03 02:52:57;;;;;;;;;;;;;;;-1.04;61.98;98433.36;1659445;85;24896;-84
2022/03/03 02:55:22;;;;;;;;;;;;;;;-1.05;62.04;98427.81;1656563;86;22893;-84
2022/03/03 02:57:54;;;;;;;;;;;;;;;-1.10;62.11;98434.78;1660881;85;21231;-86
2022/03/03 03:00:28;;;;;;;;;;;;;;;-1.21;62.10;98435.91;1660883;85;24491;-85
2022/03/03 03:02:55;;;;;;;;;;;;;;;-1.17;62.21;98421.67;1659502;85;20286;-85
2022/03/03 03:05:21;;;;;;;;;;;;;;;-1.21;62.28;98428.20;1660232;85;24801;-85
2022/03/03 03:07:47;;;;;;;;;;;;;;;-1.21;62.35;98425.64;1659455;85;22214;-84
2022/03/03 03:10:13;;;;;;;;;;;;;;;-1.23;62.43;98428.67;1659599;85;26029;-84
2022/03/03 03:12:39;;;;;;;;;;;;;;;-1.29;62.46;98425.80;1660803;85;20320;-84
2022/03/03 03:15:06;;;;;;;;;;;;;;;-1.30;62.52;98422.39;1660128;85;20639;-84
2022/03/03 03:17:32;;;;;;;;;;;;;;;-1.30;62.58;98422.39;1659759;85;24814;-85
2022/03/03 03:19:58;;;;;;;;;;;;;;;-1.28;62.69;98424.49;1660286;85;21973;-85
2022/03/03 03:22:24;;;;;;;;;;;;;;;-1.34;62.75;98418.21;1658380;85;26609;-84
2022/03/03 03:24:50;;;;;;;;;;;;;;;-1.35;62.79;98420.80;1661261;85;24548;-84
2022/03/03 03:27:16;;;;;;;;;;;;;;;-1.35;62.92;98425.50;1660777;85;20280;-84
2022/03/03 03:29:42;;;;;;;;;;;;;;;-1.33;63.03;98421.19;1659512;85;24195;-85
2022/03/03 03:32:08;;;;;;;;;;;;;;;-1.32;63.14;98419.47;1660971;85;20383;-85
2022/03/03 03:34:34;;;;;;;;;;;;;;;-1.30;63.25;98421.10;1660285;85;21136;-84
2022/03/03 03:37:00;;;;;;;;;;;;;;;-1.33;63.29;98420.34;1659050;85;24477;-84
2022/03/03 03:39:26;;;;;;;;;;;;;;;-1.38;63.36;98417.88;1658607;85;20336;-85
2022/03/03 03:41:52;;;;;;;;;;;;;;;-1.52;63.33;98421.17;1659406;84;20876;-84
2022/03/03 03:44:18;;;;;;;;;;;;;;;-1.61;63.34;98417.97;1658950;85;22015;-85
2022/03/03 03:46:44;;;;;;;;;;;;;;;-1.70;63.37;98421.59;1658962;85;25842;-85
2022/03/03 03:49:11;;;;;;;;;;;;;;;-1.76;63.38;98430.70;1659434;85;25497;-85
2022/03/03 03:51:37;;;;;;;;;;;;;;;-1.90;63.36;98427.55;1660897;85;20285;-84
2022/03/03 03:54:03;;;;;;;;;;;;;;;-1.99;63.32;98423.90;1658348;85;20328;-84
2022/03/03 03:56:29;;;;;;;;;;;;;;;-2.03;63.39;98425.69;1659596;85;21998;-84
2022/03/03 03:58:55;;;;;;;;;;;;;;;-2.00;63.49;98420.92;1658651;85;26001;-84
2022/03/03 04:01:21;;;;;;;;;;;;;;;-1.96;63.66;98423.83;1660182;85;24515;-85
2022/03/03 04:03:47;;;;;;;;;;;;;;;-2.00;63.75;98420.92;1660995;85;20238;-85
2022/03/03 04:06:13;;;;;;;;;;;;;;;-2.21;63.73;98419.20;1659563;85;24854;-84
2022/03/03 04:08:39;;;;;;;;;;;;;;;-2.17;63.88;98419.97;1666200;84;21990;-85
2022/03/03 04:11:06;;;;;;;;;;;;;;;-2.08;64.10;98413.41;1666586;86;26101;-85
2022/03/03 04:13:32;;;;;;;;;;;;;;;-2.03;64.27;98411.59;1660768;86;24523;-85
2022/03/03 04:15:58;;;;;;;;;;;;;;;-1.94;64.48;98409.27;1657535;86;20255;-85
2022/03/03 04:18:24;;;;;;;;;;;;;;;-1.90;64.69;98410.88;1655552;86;24811;-85
2022/03/03 04:20:50;;;;;;;;;;;;;;;-1.91;64.84;98401.06;1651875;86;21952;-85
2022/03/03 04:23:17;;;;;;;;;;;;;;;-1.91;64.99;98400.25;1657457;86;26036;-85
2022/03/03 04:25:44;;;;;;;;;;;;;;;-1.87;65.19;98396.73;1656662;86;25514;-86
2022/03/03 04:28:10;;;;;;;;;;;;;;;-1.87;65.31;98392.45;1658244;86;20247;-86
2022/03/03 04:30:38;;;;;;;;;;;;;;;-1.88;65.43;98383.06;1676224;83;25516;-86
2022/03/03 04:33:04;;;;;;;;;;;;;;;-1.95;65.48;98381.93;1650953;86;21969;-86
2022/03/03 04:35:30;;;;;;;;;;;;;;;-1.95;65.58;98381.49;1653166;86;25992;-86
2022/03/03 04:37:57;;;;;;;;;;;;;;;-1.99;65.67;98378.59;1650321;86;25297;-85
2022/03/03 04:40:23;;;;;;;;;;;;;;;-1.98;65.80;98380.72;1649864;85;20640;-85
2022/03/03 04:42:52;;;;;;;;;;;;;;;-2.06;65.81;98385.15;1653965;86;24928;-85
2022/03/03 04:45:18;;;;;;;;;;;;;;;-2.23;65.78;98377.80;1652534;86;21987;-84
2022/03/03 04:47:44;;;;;;;;;;;;;;;-2.26;65.83;98374.88;1651706;86;26076;-84
2022/03/03 04:50:11;;;;;;;;;;;;;;;-2.23;65.92;98372.23;1643293;86;24493;-84
2022/03/03 04:52:37;;;;;;;;;;;;;;;-2.18;66.05;98376.83;1652419;86;20254;-84
2022/03/03 04:55:04;;;;;;;;;;;;;;;-2.17;66.17;98372.12;1649251;86;24828;-84
2022/03/03 04:57:31;;;;;;;;;;;;;;;-2.18;66.26;98364.02;1650555;86;22047;-85
2022/03/03 04:59:57;;;;;;;;;;;;;;;-2.16;66.39;98354.59;1650254;86;26070;-85
2022/03/03 05:02:23;;;;;;;;;;;;;;;-2.21;66.45;98356.84;1667406;85;24313;-85
2022/03/03 05:04:49;;;;;;;;;;;;;;;-2.28;66.49;98361.67;1653543;86;20366;-85
2022/03/03 05:07:15;;;;;;;;;;;;;;;-2.35;66.52;98358.41;1650306;86;24732;-84
2022/03/03 05:09:41;;;;;;;;;;;;;;;-2.41;66.56;98363.65;1619569;87;20888;-85
2022/03/03 05:12:08;;;;;;;;;;;;;;;-2.47;66.60;98358.64;1666347;85;26756;-85
2022/03/03 05:14:34;;;;;;;;;;;;;;;-2.45;66.71;98363.28;1666824;85;24401;-84
2022/03/03 05:17:00;;;;;;;;;;;;;;;-2.39;66.89;98358.47;1675587;84;20220;-84
2022/03/03 05:19:26;;;;;;;;;;;;;;;-2.34;67.07;98354.09;1658804;85;24773;-84
2022/03/03 05:21:52;;;;;;;;;;;;;;;-2.35;67.22;98350.72;1668030;84;22113;-84
2022/03/03 05:24:18;;;;;;;;;;;;;;;-2.35;67.33;98349.44;1664497;85;26053;-84
2022/03/03 05:26:44;;;;;;;;;;;;;;;-2.36;67.46;98351.59;1661890;85;24523;-85
2022/03/03 05:29:10;;;;;;;;;;;;;;;-2.39;67.55;98359.32;1662823;85;20521;-84
2022/03/03 05:31:37;;;;;;;;;;;;;;;-2.45;67.64;98360.72;1657800;85;24837;-84
2022/03/03 05:34:08;;;;;;;;;;;;;;;-2.56;67.65;98358.80;1670573;84;22057;-83
2022/03/03 05:36:30;;;;;;;;;;;;;;;-2.69;67.63;98358.63;1674440;83;25978;-84
2022/03/03 05:38:57;;;;;;;;;;;;;;;-2.76;67.65;98354.05;1663917;85;24487;-84
2022/03/03 05:41:24;;;;;;;;;;;;;;;-2.79;67.77;98353.28;1668565;85;20149;-84
2022/03/03 05:43:51;;;;;;;;;;;;;;;-2.76;67.90;98354.48;1669630;85;24809;-84
2022/03/03 05:46:17;;;;;;;;;;;;;;;-2.71;68.13;98358.66;1672048;85;21996;-83
2022/03/03 05:48:44;;;;;;;;;;;;;;;-2.59;68.40;98358.44;1663492;83;26033;-84
2022/03/03 05:51:11;;;;;;;;;;;;;;;-2.54;68.63;98356.63;1670617;85;24497;-84
2022/03/03 05:53:37;;;;;;;;;;;;;;;-2.45;68.89;98358.16;1673794;84;20470;-84
2022/03/03 05:56:05;;;;;;;;;;;;;;;-2.40;69.12;98352.50;1667850;85;24748;-86
2022/03/03 05:58:45;;;;;;;;;;;;;;;-2.34;69.32;98351.53;1669205;84;22168;-83
2022/03/03 06:01:11;;;;;;;;;;;;;;;-2.28;69.55;98357.39;1659715;85;25921;-83
2022/03/03 06:03:38;;;;;;;;;;;;;;;-2.21;69.78;98356.41;1663239;85;24453;-84
2022/03/03 06:06:06;;;;;;;;;;;;;;;-2.13;70.02;98354.98;1671950;84;20510;-84
2022/03/03 06:08:34;;;;;;;;;;;;;;;-2.11;70.16;98355.77;1655180;84;25405;-84
2022/03/03 06:11:01;;;;;;;;;;;;;;;-2.14;70.27;98361.82;1673617;83;22081;-84
2022/03/03 06:13:29;;;;;;;;;;;;;;;-2.17;70.30;98364.86;1660150;85;26018;-84
2022/03/03 06:15:55;;;;;;;;;;;;;;;-2.26;70.29;98362.06;1661176;85;24557;-84
2022/03/03 06:18:27;;;;;;;;;;;;;;;-2.25;70.37;98365.47;1662027;85;21053;-84
2022/03/03 06:20:54;;;;;;;;;;;;;;;-2.20;70.53;98370.91;1658544;84;24742;-84
2022/03/03 06:23:20;;;;;;;;;;;;;;;-2.12;70.73;98371.58;1664391;85;22051;-84
2022/03/03 06:25:48;;;;;;;;;;;;;;;-2.03;70.93;98371.85;1667313;85;25980;-84
2022/03/03 06:28:14;;;;;;;;;;;;;;;-1.94;71.15;98369.52;1664165;85;24420;-84
2022/03/03 06:30:40;;;;;;;;;;;;;;;-1.82;71.46;98367.55;1660338;85;20272;-85
2022/03/03 06:33:06;;;;;;;;;;;;;;;-1.74;71.67;98363.52;1661871;85;24837;-84
2022/03/03 06:35:38;;;;;;;;;;;;;;;-1.65;71.87;98366.33;1663932;85;22035;-84
2022/03/03 06:38:05;;;;;;;;;;;;;;;-1.61;72.04;98364.94;1666249;84;26233;-84
2022/03/03 06:40:32;;;;;;;;;;;;;;;-1.57;72.22;98361.42;1664012;83;24490;-84
2022/03/03 06:43:00;;;;;;;;;;;;;;;-1.52;72.42;98357.03;1660345;83;20508;-84
2022/03/03 06:45:27;;;;;;;;;;;;;;;-1.47;72.57;98350.50;1664586;84;25914;-84
2022/03/03 06:47:53;;;;;;;;;;;;;;;-1.39;72.79;98355.88;1664920;85;22049;-84
2022/03/03 06:50:19;;;;;;;;;;;;;;;-1.30;73.01;98358.66;1666237;85;25982;-84
2022/03/03 06:52:47;;;;;;;;;;;;;;;-1.23;73.23;98359.35;1661358;85;25265;-84
2022/03/03 06:55:15;;;;;;;;;;;;;;;-1.12;73.47;98365.08;1645032;85;20293;-84
2022/03/03 06:57:41;;;;;;;;;;;;;;;-1.08;73.64;98358.97;1661742;82;25613;-84
2022/03/03 07:00:09;;;;;;;;;;;;;;;-1.02;73.82;98362.68;1661769;85;22050;-86
2022/03/03 07:02:37;;;;;;;;;;;;;;;-0.96;73.99;98367.66;1664790;83;26096;-85
2022/03/03 07:05:03;;;;;;;;;;;;;;;-0.90;74.18;98365.80;1661162;85;25302;-85
2022/03/03 07:07:32;;;;;;;;;;;;;;;-0.90;74.27;98352.10;1662590;83;20836;-85
2022/03/03 07:09:58;;;;;;;;;;;;;;;-0.82;74.42;98360.91;1670224;84;24839;-85
2022/03/03 07:12:26;;;;;;;;;;;;;;;-0.76;74.58;98365.89;1666287;84;22061;-83
2022/03/03 07:14:52;;;;;;;;;;;;;;;-0.74;74.66;98373.95;1670202;85;26065;-84
2022/03/03 07:17:32;;;;;;;;;;;;;;;-0.67;74.82;98366.49;1676540;84;24438;-84
2022/03/03 07:20:03;;;;;;;;;;;;;;;-0.58;74.96;98370.53;1672689;85;20257;-84
2022/03/03 07:22:39;;;;;;;;;;;;;;;-0.47;75.19;98369.81;1665873;85;24829;-85
2022/03/03 07:25:07;;;;;;;;;;;;;;;-0.37;75.37;98370.39;1669578;84;22079;-85
2022/03/03 07:27:33;;;;;;;;;;;;;;;-0.32;75.50;98362.95;1669995;84;25992;-85
2022/03/03 07:30:01;;;;;;;;;;;;;;;-0.19;75.69;98367.33;1659698;84;24404;-85
2022/03/03 07:32:29;;;;;;;;;;;;;;;-0.12;75.82;98364.99;1664859;84;20514;-85
2022/03/03 07:34:56;;;;;;;;;;;;;;;-0.09;75.91;98364.45;1654867;85;25032;-85
2022/03/03 07:37:24;;;;;;;;;;;;;;;-0.06;75.96;98364.83;1669495;84;22326;-85
2022/03/03 07:39:52;;;;;;;;;;;;;;;0.01;76.05;98372.74;1677316;84;25786;-85
2022/03/03 07:42:19;;;;;;;;;;;;;;;0.08;76.15;98361.84;1664465;84;23822;-85
2022/03/03 07:44:46;;;;;;;;;;;;;;;0.14;76.24;98359.94;1659290;84;20518;-85
2022/03/03 07:47:12;;;;;;;;;;;;;;;0.16;76.24;98350.89;1675472;84;24842;-85
2022/03/03 07:49:40;;;;;;;;;;;;;;;0.21;76.28;98352.44;1668936;84;22059;-85
2022/03/03 07:52:08;;;;;;;;;;;;;;;0.30;76.34;98348.30;1674544;84;25986;-85
2022/03/03 07:54:34;;;;;;;;;;;;;;;0.38;76.38;98348.08;1679225;84;24503;-85
2022/03/03 07:57:01;;;;;;;;;;;;;;;0.42;76.41;98343.22;1669974;84;20209;-85
2022/03/03 07:59:30;;;;;;;;;;;;;;;0.39;76.36;98336.86;1664774;85;24738;-85
2022/03/03 08:01:57;;;;;;;;;;;;;;;0.43;76.30;98339.77;1664203;84;22005;-85
2022/03/03 08:04:24;;;;;;;;;;;;;;;0.45;76.30;98343.11;1670815;85;25993;-85
2022/03/03 08:06:52;;;;;;;;;;;;;;;0.43;76.14;98347.48;1665620;82;24990;-85
2022/03/03 08:09:20;;;;;;;;;;;;;;;0.45;76.08;98344.84;1659603;85;20228;-85
2022/03/03 08:11:46;;;;;;;;;;;;;;;0.46;76.00;98338.81;1658933;85;24948;-86
2022/03/03 08:14:12;;;;;;;;;;;;;;;0.45;75.90;98337.13;1659579;85;21989;-86
2022/03/03 08:16:40;;;;;;;;;;;;;;;0.48;75.83;98334.03;1671632;84;25995;-87
2022/03/03 08:19:08;;;;;;;;;;;;;;;0.47;75.81;98325.91;1664380;85;24525;-87
2022/03/03 08:21:34;;;;;;;;;;;;;;;0.53;75.79;98329.58;1678485;84;20328;-86
2022/03/03 08:24:02;;;;;;;;;;;;;;;0.58;75.78;98327.70;1662684;85;24797;-86
2022/03/03 08:26:29;;;;;;;;;;;;;;;0.61;75.76;98326.73;1674236;85;22013;-85
2022/03/03 08:28:55;;;;;;;;;;;;;;;0.59;75.70;98331.11;1663004;85;26101;-83
2022/03/03 08:31:23;;;;;;;;;;;;;;;0.57;75.64;98331.16;1665115;84;24411;-82
2022/03/03 08:34:03;;;;;;;;;;;;;;;0.58;75.57;98333.29;1672262;84;20250;-83
2022/03/03 08:36:31;;;;;;;;;;;;;;;0.66;75.64;98332.14;1671599;85;25544;-84
2022/03/03 08:38:59;;;;;;;;;;;;;;;0.73;75.73;98339.23;1657610;83;22771;-84
2022/03/03 08:41:25;;;;;;;;;;;;;;;0.82;75.79;98338.48;1661593;85;26018;-84
2022/03/03 08:43:52;;;;;;;;;;;;;;;0.86;75.79;98339.24;1664214;84;24550;-84
2022/03/03 08:46:20;;;;;;;;;;;;;;;0.90;75.81;98336.95;1673160;84;20315;-85
2022/03/03 08:48:48;;;;;;;;;;;;;;;1.01;75.95;98329.72;1685374;84;24920;-84
2022/03/03 08:51:16;;;;;;;;;;;;;;;1.16;76.11;98328.34;1667358;84;21966;-84
2022/03/03 08:53:42;;;;;;;;;;;;;;;1.24;76.20;98328.50;1657246;85;26777;-84
2022/03/03 08:56:08;;;;;;;;;;;;;;;1.33;76.28;98326.48;1664322;85;24452;-85
2022/03/03 08:58:35;;;;;;;;;;;;;;;1.34;76.23;98332.05;1662926;84;20208;-84
2022/03/03 09:01:01;;;;;;;;;;;;;;;1.37;76.20;98329.34;1673111;84;24922;-85
2022/03/03 09:03:27;;;;;;;;;;;;;;;1.37;76.12;98323.74;1677572;84;22010;-84
2022/03/03 09:05:56;;;;;;;;;;;;;;;1.45;76.18;98315.75;1673393;84;26107;-84
2022/03/03 09:08:21;;;;;;;;;;;;;;;1.50;76.17;98324.16;1661069;84;24598;-84
2022/03/03 09:10:49;;;;;;;;;;;;;;;1.60;76.31;98318.63;1670235;84;20252;-84
2022/03/03 09:13:15;;;;;;;;;;;;;;;1.68;76.40;98317.91;1661092;84;24789;-84
2022/03/03 09:15:41;;;;;;;;;;;;;;;1.78;76.45;98314.55;1660715;84;20253;-85
2022/03/03 09:18:07;;;;;;;;;;;;;;;1.87;76.40;98310.33;1657539;85;26079;-84
2022/03/03 09:20:33;;;;;;;;;;;;;;;1.93;76.29;98317.00;1660579;85;24450;-84
2022/03/03 09:23:00;;;;;;;;;;;;;;;1.90;76.11;98314.10;1660685;83;20484;-84
2022/03/03 09:25:26;;;;;;;;;;;;;;;1.89;75.88;98314.99;1658999;84;24801;-84
2022/03/03 09:27:52;;;;;;;;;;;;;;;1.97;75.80;98314.69;1669413;85;21968;-84
2022/03/03 09:30:18;;;;;;;;;;;;;;;1.99;75.62;98313.75;1662877;85;21030;-84
2022/03/03 09:32:45;;;;;;;;;;;;;;;2.04;75.49;98317.00;1638735;85;24557;-84
2022/03/03 09:35:11;;;;;;;;;;;;;;;2.05;75.28;98311.39;1641283;86;20512;-83
2022/03/03 09:37:37;;;;;;;;;;;;;;;2.02;75.03;98311.04;1643641;85;24777;-84
2022/03/03 09:40:04;;;;;;;;;;;;;;;1.96;74.69;98311.74;1633761;86;22011;-84
2022/03/03 09:42:33;;;;;;;;;;;;;;;1.81;74.21;98316.16;1620071;85;26101;-84
2022/03/03 09:44:59;;;;;;;;;;;;;;;1.88;73.99;98312.46;1657929;85;24478;-84
2022/03/03 09:47:25;;;;;;;;;;;;;;;1.94;73.82;98317.40;1635075;85;20713;-84
2022/03/03 09:49:51;;;;;;;;;;;;;;;1.98;73.63;98311.22;1644870;86;24717;-84
2022/03/03 09:52:18;;;;;;;;;;;;;;;2.01;73.42;98314.55;1646886;86;20307;-84
2022/03/03 09:54:46;;;;;;;;;;;;;;;1.97;73.11;98313.40;1643955;85;25998;-85
2022/03/03 09:57:15;;;;;;;;;;;;;;;2.03;72.93;98313.17;1609974;86;24604;-84
2022/03/03 09:59:40;;;;;;;;;;;;;;;1.99;72.68;98311.17;1625029;86;20291;-85
2022/03/03 10:02:06;;;;;;;;;;;;;;;2.01;72.47;98318.86;1632447;86;24672;-84
2022/03/03 10:04:33;;;;;;;;;;;;;;;2.08;72.30;98315.13;1643455;86;21937;-85
2022/03/03 10:07:07;;;;;;;;;;;;;;;2.19;72.18;98314.72;1638967;86;25718;-85
2022/03/03 10:09:33;;;;;;;;;;;;;;;2.28;72.10;98309.23;1638389;85;24573;-85
2022/03/03 10:12:03;;;;;;;;;;;;;;;2.32;71.97;98305.17;1634650;86;20348;-84
2022/03/03 10:14:34;;;;;;;;;;;;;;;2.39;71.88;98307.07;1636674;85;24825;-85
2022/03/03 10:17:00;;;;;;;;;;;;;;;2.49;71.82;98302.77;1648120;85;21968;-84
2022/03/03 10:19:26;;;;;;;;;;;;;;;2.65;71.83;98304.73;1632893;86;25983;-85
2022/03/03 10:21:52;;;;;;;;;;;;;;;2.75;71.82;98304.75;1662537;85;24507;-85
2022/03/03 10:24:21;;;;;;;;;;;;;;;2.83;71.75;98303.55;1662301;85;20252;-85
2022/03/03 10:26:49;;;;;;;;;;;;;;;2.82;71.53;98300.58;1666603;85;24784;-85
2022/03/03 10:29:17;;;;;;;;;;;;;;;2.82;71.31;98303.16;1662634;84;22093;-85
2022/03/03 10:31:47;;;;;;;;;;;;;;;2.89;71.18;98301.17;1650727;83;26206;-85
2022/03/03 10:34:18;;;;;;;;;;;;;;;2.83;70.94;98295.80;1621224;87;24511;-85
2022/03/03 10:36:46;;;;;;;;;;;;;;;2.73;70.59;98288.02;1630552;86;20225;-85
2022/03/03 10:39:14;;;;;;;;;;;;;;;2.78;70.42;98289.14;1636132;85;24794;-85
2022/03/03 10:41:46;;;;;;;;;;;;;;;2.87;70.31;98283.13;1612138;85;22332;-85
2022/03/03 10:44:14;;;;;;;;;;;;;;;2.93;70.16;98287.21;1639806;86;25972;-81
2022/03/03 10:46:41;;;;;;;;;;;;;;;3.05;70.09;98293.17;1640142;86;24511;-81
2022/03/03 10:49:21;;;;;;;;;;;;;;;3.11;69.96;98298.53;1636185;86;20301;-81
2022/03/03 10:51:48;;;;;;;;;;;;;;;3.14;69.78;98291.92;1643616;86;24904;-81
2022/03/03 10:54:14;;;;;;;;;;;;;;;3.13;69.54;98290.24;1615368;86;22057;-81
2022/03/03 10:56:44;;;;;;;;;;;;;;;3.20;69.46;98286.05;1675644;82;26155;-81
2022/03/03 10:59:17;;;;;;;;;;;;;;;3.32;69.40;98283.40;1664464;84;24530;-82
2022/03/03 11:01:39;;;;;;;;;;;;;;;3.38;69.31;98278.77;1640058;84;20227;-82
2022/03/03 11:04:05;;;;;;;;;;;;;;;3.33;69.06;98282.47;1664608;84;20221;-81
2022/03/03 11:06:33;;;;;;;;;;;;;;;3.36;68.81;98287.07;1666493;84;22041;-81
2022/03/03 11:09:00;;;;;;;;;;;;;;;3.48;68.74;98275.80;1662772;84;26014;-82
2022/03/03 11:11:26;;;;;;;;;;;;;;;3.60;68.69;98268.80;1645803;86;24291;-81
2022/03/03 11:13:53;;;;;;;;;;;;;;;3.65;68.54;98270.73;1644682;86;20422;-81
2022/03/03 11:16:20;;;;;;;;;;;;;;;3.63;68.29;98267.36;1643928;85;24378;-81
2022/03/03 11:18:47;;;;;;;;;;;;;;;3.58;67.94;98269.31;1662733;86;21546;-81
2022/03/03 11:21:13;;;;;;;;;;;;;;;3.59;67.66;98271.00;1660046;86;26058;-81
2022/03/03 11:23:41;;;;;;;;;;;;;;;3.59;67.42;98263.23;1660163;85;24599;-81
2022/03/03 11:26:09;;;;;;;;;;;;;;;3.71;67.32;98267.84;1658678;85;20457;-81
2022/03/03 11:28:36;;;;;;;;;;;;;;;3.68;67.05;98262.36;1658747;85;24767;-81
2022/03/03 11:31:04;;;;;;;;;;;;;;;3.73;66.86;98256.98;1660410;85;21984;-80
2022/03/03 11:33:35;;;;;;;;;;;;;;;3.89;66.78;98246.77;1659727;85;25878;-81
2022/03/03 11:36:01;;;;;;;;;;;;;;;4.01;66.66;98251.38;1658826;85;26959;-80
2022/03/03 11:38:29;;;;;;;;;;;;;;;4.14;66.58;98251.20;1659962;85;20509;-80
2022/03/03 11:40:58;;;;;;;;;;;;;;;4.01;66.19;98248.79;1657388;85;25032;-80
2022/03/03 11:43:25;;;;;;;;;;;;;;;3.95;65.79;98249.07;1660085;85;21953;-81
2022/03/03 11:45:53;;;;;;;;;;;;;;;4.02;65.54;98250.47;1660215;85;26104;-80
2022/03/03 11:48:23;;;;;;;;;;;;;;;3.82;64.96;98246.68;1659403;84;24565;-81
2022/03/03 11:50:50;;;;;;;;;;;;;;;3.64;64.36;98245.30;1658487;85;20241;-81
2022/03/03 11:53:18;;;;;;;;;;;;;;;3.53;63.88;98243.66;1659823;85;24907;-80
2022/03/03 11:55:58;;;;;;;;;;;;;;;3.44;63.40;98240.16;1660027;85;22007;-80
2022/03/03 11:58:28;;;;;;;;;;;;;;;3.41;63.07;98232.55;1649663;85;26024;-80
2022/03/03 12:01:05;;;;;;;;;;;;;;;3.54;62.96;98225.94;1658939;85;24721;-81
2022/03/03 12:03:31;;;;;;;;;;;;;;;3.75;62.98;98224.95;1647064;85;20318;-81
2022/03/03 12:05:58;;;;;;;;;;;;;;;3.96;63.08;98225.70;1656444;85;24742;-81
2022/03/03 12:08:28;;;;;;;;;;;;;;;4.12;63.13;98221.48;1657104;85;22146;-81
2022/03/03 12:10:59;;;;;;;;;;;;;;;4.20;63.05;98218.06;1666582;84;26024;-81
2022/03/03 12:13:26;;;;;;;;;;;;;;;4.23;62.93;98215.80;1662803;85;25189;-81
2022/03/03 12:16:12;;;;;;;;;;;;;;;4.33;62.91;98218.78;1667061;85;20337;-81
2022/03/03 12:18:38;;;;;;;;;;;;;;;4.41;62.82;98212.78;1661316;85;24774;-81
2022/03/03 12:21:23;;;;;;;;;;;;;;;4.51;62.72;98205.78;1661287;85;21824;-81
2022/03/03 12:23:49;;;;;;;;;;;;;;;4.58;62.61;98204.55;1660136;85;26044;-82
2022/03/03 12:26:16;;;;;;;;;;;;;;;4.39;62.23;98199.89;1662222;85;24556;-81
2022/03/03 12:28:47;;;;;;;;;;;;;;;4.28;61.89;98195.69;1664020;83;20234;-81
2022/03/03 12:31:29;;;;;;;;;;;;;;;4.28;61.68;98194.85;1663809;85;25489;-81
2022/03/03 12:34:01;;;;;;;;;;;;;;;4.36;61.58;98190.15;1662388;85;22020;-81
2022/03/03 12:36:27;;;;;;;;;;;;;;;4.53;61.62;98194.02;1666067;84;26619;-81
2022/03/03 12:38:55;;;;;;;;;;;;;;;4.66;61.73;98187.33;1655847;85;24615;-82
2022/03/03 12:41:23;;;;;;;;;;;;;;;4.75;61.71;98193.34;1643706;84;20326;-82
2022/03/03 12:43:49;;;;;;;;;;;;;;;4.86;61.71;98182.42;1636568;85;24850;-86
2022/03/03 12:46:15;;;;;;;;;;;;;;;4.98;61.71;98183.94;1634548;86;20233;-84
2022/03/03 12:48:43;;;;;;;;;;;;;;;4.94;61.50;98179.84;1643692;85;26619;-85
2022/03/03 12:51:09;;;;;;;;;;;;;;;4.87;61.22;98180.22;1619844;87;24429;-85